Time;durP1;ratioP1;P1;durP2;ratioP2;P2;SDS_P1;SDS_P2;PMS_P1;PMS_P2;Temp;Humidity;BMP_temperature;BMP_pressure;BME280_temperature;BME280_humidity;BME280_pressure;Samples;Min_cycle;Max_cycle;Signal;HPM_P1;HPM_P2
2021/05/23 00:01:08;;;;;;;5.50;3.87;;;;;;;11.16;61.36;100286.22;5120499;28;20485;-63
2021/05/23 00:03:34;;;;;;;7.17;3.63;;;;;;;11.16;60.84;100288.81;5121495;28;20192;-64
2021/05/23 00:06:00;;;;;;;5.03;3.53;;;;;;;11.61;59.47;100281.81;5121610;28;20190;-64
2021/05/23 00:08:27;;;;;;;6.03;3.60;;;;;;;11.53;60.39;100276.63;5121368;27;20566;-65
2021/05/23 00:10:53;;;;;;;6.37;3.90;;;;;;;11.28;60.77;100292.31;5121197;28;20492;-65
2021/05/23 00:13:24;;;;;;;6.97;3.73;;;;;;;11.49;60.37;100281.81;5120963;28;20373;-65
2021/05/23 00:15:58;;;;;;;4.13;3.50;;;;;;;11.57;59.17;100280.09;5121063;28;20417;-64
2021/05/23 00:18:24;;;;;;;6.87;3.70;;;;;;;11.51;59.41;100280.09;5121130;28;20684;-64
2021/05/23 00:20:51;;;;;;;5.20;3.80;;;;;;;11.71;59.21;100277.44;5120940;28;20676;-64
2021/05/23 00:23:16;;;;;;;5.30;3.33;;;;;;;11.59;59.49;100284.41;5120314;28;20394;-64
2021/05/23 00:25:41;;;;;;;5.50;4.10;;;;;;;11.62;60.04;100278.31;5120655;28;20559;-63
2021/05/23 00:28:08;;;;;;;12.33;4.40;;;;;;;11.72;59.63;100281.81;5120835;28;20183;-63
2021/05/23 00:30:34;;;;;;;3.70;3.33;;;;;;;11.58;59.78;100277.47;5120395;28;20160;-64
2021/05/23 00:32:59;;;;;;;5.33;4.37;;;;;;;11.42;59.16;100281.84;5120518;28;20432;-64
2021/05/23 00:35:24;;;;;;;7.40;3.97;;;;;;;11.41;59.74;100285.31;5120581;28;20172;-64
2021/05/23 00:37:50;;;;;;;5.87;4.10;;;;;;;11.42;59.43;100283.56;5121198;28;20421;-64
2021/05/23 00:40:16;;;;;;;5.80;3.80;;;;;;;11.85;58.60;100285.22;5120159;28;20266;-64
2021/05/23 00:42:41;;;;;;;4.70;3.80;;;;;;;11.40;59.33;100286.19;5120651;28;20608;-64
2021/05/23 00:45:08;;;;;;;5.65;4.00;;;;;;;11.49;59.55;100289.66;5120857;28;20452;-64
2021/05/23 00:47:34;;;;;;;7.47;4.10;;;;;;;11.69;58.84;100287.91;5120648;28;20892;-64
2021/05/23 00:50:00;;;;;;;6.10;4.10;;;;;;;11.39;59.54;100297.53;5120454;28;20445;-64
2021/05/23 00:52:25;;;;;;;6.10;4.77;;;;;;;11.51;59.82;100291.38;5120714;28;20262;-64
2021/05/23 00:54:51;;;;;;;6.53;4.00;;;;;;;11.82;58.44;100299.16;5120360;28;20178;-63
2021/05/23 00:57:17;;;;;;;5.50;4.00;;;;;;;11.54;59.07;100299.25;5120264;28;20167;-64
2021/05/23 00:59:42;;;;;;;8.20;4.37;;;;;;;11.66;59.41;100300.09;5120584;28;20191;-64
2021/05/23 01:02:07;;;;;;;5.27;3.70;;;;;;;11.43;59.42;100308.81;5120153;28;20216;-64
2021/05/23 01:04:34;;;;;;;7.27;4.63;;;;;;;11.33;59.84;100302.72;5120162;27;20163;-64
2021/05/23 01:07:00;;;;;;;6.77;4.20;;;;;;;11.90;58.27;100299.16;5120599;28;20219;-64
2021/05/23 01:09:25;;;;;;;6.70;4.20;;;;;;;11.41;59.68;100300.13;5120174;28;20496;-64
2021/05/23 01:11:50;;;;;;;6.27;3.80;;;;;;;11.56;59.15;100296.63;5120061;28;20255;-63
2021/05/23 01:14:44;;;;;;;5.63;3.57;;;;;;;11.23;60.53;100304.47;5120424;28;20155;-64
2021/05/23 01:17:12;;;;;;;7.90;3.77;;;;;;;11.66;59.54;100300.09;5119388;28;20187;-63
2021/05/23 01:19:50;;;;;;;7.50;4.07;;;;;;;11.46;59.06;100317.50;5120416;28;20865;-64
2021/05/23 01:22:19;;;;;;;5.63;4.10;;;;;;;11.41;59.39;100306.19;5119165;28;20413;-64
2021/05/23 01:25:12;;;;;;;7.30;4.90;;;;;;;11.48;59.41;100312.28;5119144;28;20508;-63
2021/05/23 01:27:44;;;;;;;6.27;4.10;;;;;;;11.61;59.29;100313.16;5119149;28;20478;-64
2021/05/23 01:30:17;;;;;;;6.03;3.73;;;;;;;11.45;60.25;100305.31;5119080;28;20410;-64
2021/05/23 01:32:45;;;;;;;4.20;3.67;;;;;;;11.56;59.73;100322.72;5119615;28;20420;-64
2021/05/23 01:35:18;;;;;;;5.87;4.20;;;;;;;11.37;59.38;100316.66;5119718;28;20401;-64
2021/05/23 01:37:49;;;;;;;9.90;4.70;;;;;;;11.77;59.63;100314.88;5119723;28;20419;-64
2021/05/23 01:40:17;;;;;;;4.20;3.80;;;;;;;11.60;58.94;100314.03;5118891;28;20388;-64
2021/05/23 01:42:42;;;;;;;5.23;4.00;;;;;;;11.38;59.95;100316.66;5119341;28;20833;-64
2021/05/23 01:45:08;;;;;;;6.63;3.70;;;;;;;11.26;59.96;100321.88;5119495;28;20406;-64
2021/05/23 01:47:34;;;;;;;9.20;4.20;;;;;;;11.78;58.83;100321.84;5119965;28;20183;-64
2021/05/23 01:49:59;;;;;;;5.40;4.20;;;;;;;11.46;59.62;100327.97;5119354;28;20388;-64
2021/05/23 01:52:25;;;;;;;6.80;4.23;;;;;;;11.36;59.38;100325.34;5118415;28;20563;-65
2021/05/23 01:54:50;;;;;;;5.03;4.10;;;;;;;11.26;61.31;100327.09;5119826;27;20164;-64
2021/05/23 01:57:15;;;;;;;5.43;3.90;;;;;;;11.01;60.42;100327.06;5119253;28;20582;-64
2021/05/23 01:59:41;;;;;;;4.00;3.43;;;;;;;11.27;60.21;100328.81;5118455;28;20171;-64
2021/05/23 02:02:06;;;;;;;4.63;3.73;;;;;;;11.19;59.66;100334.06;5119521;28;20489;-64
2021/05/23 02:04:31;;;;;;;3.67;3.30;;;;;;;11.61;58.57;100328.81;5119169;28;20198;-64
2021/05/23 02:06:57;;;;;;;5.87;3.77;;;;;;;11.62;58.51;100330.53;5119215;28;20218;-64
2021/05/23 02:09:22;;;;;;;4.50;4.10;;;;;;;11.35;58.92;100332.31;5101749;28;20179;-64
2021/05/23 02:11:54;;;;;;;4.60;3.77;;;;;;;11.32;59.72;100334.91;5118248;28;20287;-65
2021/05/23 02:14:20;;;;;;;5.27;3.60;;;;;;;11.39;58.85;100328.84;5118771;28;20163;-63
2021/05/23 02:16:45;;;;;;;7.30;3.90;;;;;;;11.26;59.62;100327.09;5119286;28;20667;-64
2021/05/23 02:19:10;;;;;;;7.90;3.60;;;;;;;11.31;58.66;100324.47;5119190;28;20516;-65
2021/05/23 02:21:36;;;;;;;9.53;3.70;;;;;;;11.36;59.44;100326.22;5118812;28;20178;-64
2021/05/23 02:24:01;;;;;;;5.03;4.00;;;;;;;11.63;58.20;100332.28;5119228;28;20536;-64
2021/05/23 02:26:26;;;;;;;4.13;3.73;;;;;;;11.29;58.83;100324.47;5118754;28;20199;-64
2021/05/23 02:28:53;;;;;;;5.37;3.80;;;;;;;11.08;60.02;100339.25;5118622;28;20258;-64
2021/05/23 02:31:19;;;;;;;5.70;3.77;;;;;;;11.46;58.36;100329.72;5119063;28;20171;-64
2021/05/23 02:33:45;;;;;;;5.63;3.80;;;;;;;11.42;58.70;100326.22;5118038;28;20424;-64
2021/05/23 02:36:10;;;;;;;8.30;4.50;;;;;;;11.06;60.08;100333.16;5118839;27;20421;-64
2021/05/23 02:38:35;;;;;;;9.00;4.73;;;;;;;11.46;59.12;100335.78;5119179;28;20163;-64
2021/05/23 02:41:01;;;;;;;6.83;4.20;;;;;;;11.05;59.75;100333.16;5118571;28;20513;-65
2021/05/23 02:43:26;;;;;;;6.37;3.93;;;;;;;11.31;60.02;100338.38;5118647;27;20171;-63
2021/05/23 02:45:52;;;;;;;5.17;3.70;;;;;;;11.43;59.13;100341.03;5119210;28;20199;-64
2021/05/23 02:48:18;;;;;;;6.97;4.80;;;;;;;11.21;59.95;100353.16;5118598;28;20167;-63
2021/05/23 02:50:46;;;;;;;5.10;4.40;;;;;;;11.54;58.97;100345.34;5118652;28;20630;-63
2021/05/23 02:53:12;;;;;;;6.60;4.30;;;;;;;11.42;59.50;100341.00;5119042;28;20437;-63
2021/05/23 02:55:39;;;;;;;6.80;4.17;;;;;;;11.03;60.37;100343.59;5118682;28;20618;-64
2021/05/23 02:58:08;;;;;;;8.20;4.30;;;;;;;11.04;60.81;100347.06;5118412;28;20424;-63
2021/05/23 03:00:34;;;;;;;5.53;4.00;;;;;;;11.18;60.40;100352.31;5118863;28;20380;-64
2021/05/23 03:03:00;;;;;;;4.23;3.70;;;;;;;11.05;60.82;100356.63;5119776;28;20406;-64
2021/05/23 03:05:25;;;;;;;7.10;3.67;;;;;;;10.98;61.44;100358.38;5122579;28;20168;-64
2021/05/23 03:07:54;;;;;;;8.30;4.20;;;;;;;11.04;61.28;100368.81;5123308;28;20704;-63
2021/05/23 03:10:24;;;;;;;10.17;4.73;;;;;;;11.20;60.54;100367.06;5122515;28;20167;-64
2021/05/23 03:12:50;;;;;;;5.70;4.20;;;;;;;11.10;60.73;100358.38;5121616;28;20603;-64
2021/05/23 03:15:18;;;;;;;8.80;4.50;;;;;;;10.88;62.08;100369.63;5122706;28;20427;-63
2021/05/23 03:17:44;;;;;;;5.33;3.80;;;;;;;10.57;63.00;100372.19;5122328;28;20720;-63
2021/05/23 03:20:11;;;;;;;7.30;4.77;;;;;;;10.88;61.85;100372.25;5122320;28;20391;-63
2021/05/23 03:22:37;;;;;;;8.63;4.20;;;;;;;11.03;60.98;100380.13;5122458;28;20465;-63
2021/05/23 03:25:07;;;;;;;10.60;4.87;;;;;;;10.89;61.92;100384.41;5121931;28;20601;-64
2021/05/23 03:27:33;;;;;;;6.70;3.97;;;;;;;10.67;62.41;100380.88;5121993;28;20484;-64
2021/05/23 03:29:58;;;;;;;7.03;3.80;;;;;;;10.53;62.83;100393.88;5122670;28;20503;-64
2021/05/23 03:32:23;;;;;;;6.23;4.53;;;;;;;10.73;61.79;100386.09;5122001;28;20168;-63
2021/05/23 03:34:49;;;;;;;6.00;4.20;;;;;;;10.75;61.76;100393.06;5122100;28;20239;-64
2021/05/23 03:37:14;;;;;;;7.20;3.90;;;;;;;10.95;61.21;100397.50;5122477;28;20164;-64
2021/05/23 03:39:40;;;;;;;5.73;3.93;;;;;;;10.37;63.48;100403.34;5121942;28;20186;-64
2021/05/23 03:42:05;;;;;;;7.20;4.50;;;;;;;10.47;62.79;100406.88;5121699;28;20512;-64
2021/05/23 03:44:31;;;;;;;7.20;4.23;;;;;;;10.59;63.06;100410.41;5122593;28;20207;-64
2021/05/23 03:46:56;;;;;;;8.17;4.90;;;;;;;10.76;61.96;100409.59;5121715;28;20199;-63
2021/05/23 03:49:21;;;;;;;8.57;4.60;;;;;;;10.56;61.76;100404.31;5121806;28;20594;-64
2021/05/23 03:51:48;;;;;;;7.27;4.70;;;;;;;10.61;62.66;100418.25;5122504;28;20187;-64
2021/05/23 03:54:13;;;;;;;6.60;4.60;;;;;;;10.65;62.20;100416.50;5121691;28;20167;-64
2021/05/23 03:56:39;;;;;;;6.07;4.03;;;;;;;10.83;61.50;100408.75;5121588;28;20414;-64
2021/05/23 03:59:04;;;;;;;9.83;4.70;;;;;;;10.93;61.67;100418.34;5122352;28;20255;-63
2021/05/23 04:01:29;;;;;;;6.30;4.50;;;;;;;11.07;60.53;100423.59;5121346;28;20221;-64
2021/05/23 04:03:58;;;;;;;10.63;4.53;;;;;;;12.29;57.07;100413.16;5121593;28;20207;-64
2021/05/23 04:06:23;;;;;;;8.87;3.97;;;;;;;12.90;54.81;100413.81;5121944;28;20553;-64
2021/05/23 04:08:49;;;;;;;7.27;3.97;;;;;;;12.79;54.86;100415.63;5121335;28;20463;-64
2021/05/23 04:11:18;;;;;;;7.73;4.10;;;;;;;12.22;56.44;100423.66;5121254;28;20175;-65
2021/05/23 04:13:44;;;;;;;8.60;3.80;;;;;;;11.52;58.64;100435.88;5121338;28;20537;-64
2021/05/23 04:16:10;;;;;;;5.43;3.90;;;;;;;11.49;59.22;100434.13;5120501;28;20524;-63
2021/05/23 04:18:35;;;;;;;11.20;4.13;;;;;;;11.15;60.02;100438.41;5121136;28;20440;-64
2021/05/23 04:21:01;;;;;;;6.50;4.43;;;;;;;10.83;61.34;100445.25;5121697;28;20186;-64
2021/05/23 04:23:26;;;;;;;8.97;4.40;;;;;;;10.72;61.79;100442.59;5121134;28;20221;-64
2021/05/23 04:25:52;;;;;;;7.83;4.50;;;;;;;10.83;61.43;100447.00;5120897;28;20215;-64
2021/05/23 04:28:17;;;;;;;8.87;4.33;;;;;;;11.31;59.65;100440.16;5121510;28;20171;-64
2021/05/23 04:30:43;;;;;;;6.83;4.57;;;;;;;11.44;58.96;100449.75;5120896;28;20179;-63
2021/05/23 04:33:08;;;;;;;5.90;3.67;;;;;;;13.30;53.80;100439.75;5120769;28;20434;-64
2021/05/23 04:35:34;;;;;;;7.43;4.20;;;;;;;14.41;49.98;100440.56;5121336;28;20304;-64
2021/05/23 04:38:01;;;;;;;6.03;3.83;;;;;;;14.93;48.50;100439.09;5120742;28;20172;-63
2021/05/23 04:40:27;;;;;;;16.87;8.63;;;;;;;14.05;50.18;100455.78;5120770;28;20168;-63
2021/05/23 04:42:52;;;;;;;14.70;8.47;;;;;;;14.76;48.71;100444.56;5120963;27;20416;-63
2021/05/23 04:45:17;;;;;;;5.60;4.40;;;;;;;15.08;47.60;100445.03;5119802;28;20388;-64
2021/05/23 04:47:43;;;;;;;8.03;4.33;;;;;;;15.18;46.78;100453.63;5120584;28;20175;-64
2021/05/23 04:50:09;;;;;;;6.93;4.47;;;;;;;16.15;45.02;100452.97;5120909;28;20181;-64
2021/05/23 04:52:35;;;;;;;5.63;3.40;;;;;;;15.53;45.85;100455.75;5119733;28;20167;-65
2021/05/23 04:55:01;;;;;;;9.27;5.70;;;;;;;13.86;50.40;100464.69;5120562;28;20471;-65
2021/05/23 04:57:26;;;;;;;10.77;4.80;;;;;;;12.08;55.50;100476.81;5120760;28;20213;-64
2021/05/23 04:59:52;;;;;;;10.30;4.43;;;;;;;12.09;55.01;100481.16;5120412;28;20179;-64
2021/05/23 05:02:19;;;;;;;11.97;6.90;;;;;;;12.33;55.65;100476.78;5120312;28;20168;-64
2021/05/23 05:04:44;;;;;;;7.77;5.30;;;;;;;14.06;50.87;100481.13;5120968;28;20744;-66
2021/05/23 05:07:09;;;;;;;11.17;4.50;;;;;;;14.90;47.14;100482.91;5120216;28;20556;-64
2021/05/23 05:09:35;;;;;;;8.53;4.70;;;;;;;15.64;45.46;100484.47;5120281;28;20175;-64
2021/05/23 05:12:00;;;;;;;9.63;3.90;;;;;;;16.74;43.04;100487.88;5120431;28;20206;-64
2021/05/23 05:14:25;;;;;;;6.77;4.20;;;;;;;16.54;43.38;100488.25;5119342;28;20172;-64
2021/05/23 05:16:51;;;;;;;8.77;3.67;;;;;;;17.02;42.18;100490.81;5120009;28;20496;-64
2021/05/23 05:19:16;;;;;;;5.50;3.80;;;;;;;16.61;42.63;100489.88;5120454;28;20203;-64
2021/05/23 05:21:41;;;;;;;6.73;3.90;;;;;;;17.11;42.08;100493.25;5119816;28;20189;-65
2021/05/23 05:24:07;;;;;;;9.53;4.63;;;;;;;17.29;41.08;100491.13;5119907;28;20214;-65
2021/05/23 05:26:33;;;;;;;5.93;3.70;;;;;;;16.78;42.39;100511.47;5119845;28;20264;-65
2021/05/23 05:28:58;;;;;;;6.07;3.33;;;;;;;17.68;41.22;100507.81;5119777;28;20443;-64
2021/05/23 05:31:23;;;;;;;11.37;8.03;;;;;;;17.70;41.58;100507.78;5119863;28;20171;-64
2021/05/23 05:33:49;;;;;;;7.83;4.23;;;;;;;16.42;42.80;100510.41;5120238;28;20221;-65
2021/05/23 05:36:14;;;;;;;11.33;4.10;;;;;;;16.76;42.41;100504.50;5119679;28;20175;-65
2021/05/23 05:38:39;;;;;;;6.13;4.53;;;;;;;18.03;40.38;100502.59;5119626;28;20211;-64
2021/05/23 05:41:05;;;;;;;7.83;3.90;;;;;;;18.41;38.67;100513.06;5119706;28;20528;-64
2021/05/23 05:43:31;;;;;;;7.20;4.23;;;;;;;16.54;43.23;100517.22;5119429;28;20219;-65
2021/05/23 05:45:56;;;;;;;5.77;3.80;;;;;;;16.94;42.30;100514.69;5119542;28;20230;-64
2021/05/23 05:48:22;;;;;;;7.53;4.07;;;;;;;17.30;41.64;100522.69;5119986;28;20417;-64
2021/05/23 05:50:47;;;;;;;8.80;4.00;;;;;;;15.90;43.83;100525.28;5119174;28;20167;-65
2021/05/23 05:53:12;;;;;;;10.30;4.23;;;;;;;16.75;42.87;100518.53;5119657;28;20196;-65
2021/05/23 05:55:38;;;;;;;7.70;3.97;;;;;;;16.07;43.59;100525.88;5119692;28;20246;-65
2021/05/23 05:58:03;;;;;;;6.50;4.10;;;;;;;16.52;43.24;100514.59;5119273;27;20172;-65
2021/05/23 06:00:28;;;;;;;7.97;4.10;;;;;;;16.87;43.01;100520.06;5119210;28;20236;-65
2021/05/23 06:02:53;;;;;;;9.13;4.20;;;;;;;18.59;39.11;100514.34;5119553;28;20171;-65
2021/05/23 06:05:19;;;;;;;6.87;3.83;;;;;;;17.99;39.35;100528.16;5118879;28;20178;-63
2021/05/23 06:07:45;;;;;;;12.40;7.70;;;;;;;19.19;38.39;100531.19;5119038;28;20232;-65
2021/05/23 06:10:11;;;;;;;5.90;3.77;;;;;;;19.47;36.73;100527.69;5119853;28;20455;-64
2021/05/23 06:12:36;;;;;;;8.17;3.80;;;;;;;20.02;36.04;100528.63;5119152;28;20541;-64
2021/05/23 06:15:03;;;;;;;11.10;4.70;;;;;;;20.34;35.15;100523.16;5118913;28;20420;-64
2021/05/23 06:17:28;;;;;;;6.43;3.87;;;;;;;19.32;37.06;100534.31;5119398;28;20472;-64
2021/05/23 06:19:54;;;;;;;8.10;3.73;;;;;;;18.84;36.97;100528.59;5119014;28;20470;-64
2021/05/23 06:22:19;;;;;;;6.40;3.70;;;;;;;19.24;37.23;100534.56;5118637;28;20175;-65
2021/05/23 06:24:44;;;;;;;6.87;3.20;;;;;;;19.70;35.41;100529.63;5118801;28;20250;-65
2021/05/23 06:27:09;;;;;;;5.07;3.60;;;;;;;20.18;34.90;100528.94;5118766;28;20210;-65
2021/05/23 06:29:35;;;;;;;6.53;3.60;;;;;;;19.99;34.62;100526.06;5118785;28;20537;-64
2021/05/23 06:32:00;;;;;;;8.33;4.13;;;;;;;20.04;34.71;100531.22;5118699;28;20182;-64
2021/05/23 06:34:25;;;;;;;5.83;3.80;;;;;;;20.97;33.47;100526.25;5118728;28;20171;-63
2021/05/23 06:36:51;;;;;;;4.73;3.40;;;;;;;21.13;32.63;100523.00;5118886;28;20164;-63
2021/05/23 06:39:17;;;;;;;6.47;3.40;;;;;;;21.42;33.13;100528.97;5118236;28;20179;-63
2021/05/23 06:41:42;;;;;;;4.83;3.17;;;;;;;20.17;35.45;100545.78;5118466;28;20228;-64
2021/05/23 06:44:07;;;;;;;6.50;3.70;;;;;;;21.26;32.81;100536.66;5119020;28;20168;-62
2021/05/23 06:46:32;;;;;;;6.80;3.93;;;;;;;21.86;33.88;100539.63;5118488;28;20207;-62
2021/05/23 06:48:58;;;;;;;6.00;3.50;;;;;;;20.99;33.58;100547.38;5118560;28;20164;-63
2021/05/23 06:51:23;;;;;;;9.53;3.80;;;;;;;21.30;34.77;100562.13;5118855;28;20206;-64
2021/05/23 06:53:48;;;;;;;7.60;3.30;;;;;;;18.25;37.79;100562.75;5117309;28;20576;-61
2021/05/23 06:56:14;;;;;;;5.60;3.80;;;;;;;18.23;38.56;100573.34;5117256;28;20337;-60
2021/05/23 06:58:43;;;;;;;5.27;3.30;;;;;;;18.96;36.47;100585.53;5118012;28;20277;-60
2021/05/23 07:01:09;;;;;;;8.00;3.97;;;;;;;18.22;39.65;100584.78;5118356;28;20172;-60
2021/05/23 07:03:35;;;;;;;4.87;4.00;;;;;;;19.72;36.09;100578.03;5118119;28;20512;-61
2021/05/23 07:06:00;;;;;;;7.80;4.40;;;;;;;19.74;36.49;100588.56;5118495;28;20532;-60
2021/05/23 07:08:25;;;;;;;5.97;3.50;;;;;;;17.59;40.48;100599.41;5118215;28;20176;-64
2021/05/23 07:10:50;;;;;;;7.40;3.60;;;;;;;17.88;39.56;100598.75;5118074;28;20427;-60
2021/05/23 07:13:16;;;;;;;7.07;3.83;;;;;;;18.11;38.36;100600.88;5118557;28;20233;-60
2021/05/23 07:15:41;;;;;;;8.23;4.57;;;;;;;18.85;37.36;100596.38;5118019;28;20227;-60
2021/05/23 07:18:06;;;;;;;5.73;3.97;;;;;;;19.12;36.91;100604.47;5118165;28;20250;-60
2021/05/23 07:20:32;;;;;;;11.80;3.53;;;;;;;18.38;38.25;100603.75;5118480;28;20175;-60
2021/05/23 07:22:57;;;;;;;4.90;3.50;;;;;;;19.22;36.84;100606.88;5118070;28;20187;-60
2021/05/23 07:25:22;;;;;;;7.77;3.57;;;;;;;20.10;34.71;100606.88;5117972;28;20294;-61
2021/05/23 07:27:48;;;;;;;5.23;3.53;;;;;;;18.69;37.55;100611.75;5118560;28;20413;-61
2021/05/23 07:30:14;;;;;;;6.17;3.40;;;;;;;17.18;40.35;100623.06;5118064;28;20544;-64
2021/05/23 07:32:39;;;;;;;6.40;3.80;;;;;;;19.66;35.23;100609.97;5117972;28;20168;-64
2021/05/23 07:35:05;;;;;;;8.33;3.70;;;;;;;20.39;33.85;100607.72;5118391;28;20164;-64
2021/05/23 07:37:31;;;;;;;7.07;3.50;;;;;;;18.57;36.47;100608.56;5117876;28;20172;-64
2021/05/23 07:39:56;;;;;;;6.97;3.50;;;;;;;20.64;33.65;100613.03;5117979;28;20428;-64
2021/05/23 07:42:21;;;;;;;5.83;3.27;;;;;;;18.99;36.10;100611.00;5118375;28;20403;-63
2021/05/23 07:44:46;;;;;;;6.77;3.80;;;;;;;18.30;37.77;100621.56;5118219;28;20182;-63
2021/05/23 07:47:12;;;;;;;4.70;3.40;;;;;;;16.56;41.64;100631.19;5117836;28;20196;-63
2021/05/23 07:49:40;;;;;;;5.40;3.40;;;;;;;18.59;38.34;100626.13;5119183;28;20175;-64
2021/05/23 07:52:10;;;;;;;8.37;3.50;;;;;;;21.01;33.10;100627.69;5121438;27;20168;-63
2021/05/23 07:54:35;;;;;;;4.70;2.90;;;;;;;21.55;31.03;100627.53;5122063;28;20418;-63
2021/05/23 07:57:01;;;;;;;5.70;3.27;;;;;;;21.49;31.65;100629.47;5121288;28;20420;-64
2021/05/23 07:59:27;;;;;;;5.97;3.00;;;;;;;20.04;33.53;100642.34;5121470;28;20563;-64
2021/05/23 08:01:53;;;;;;;6.00;3.30;;;;;;;18.93;35.64;100645.50;5121278;28;20405;-64
2021/05/23 08:04:18;;;;;;;7.17;3.47;;;;;;;17.02;39.41;100666.41;5121579;28;20663;-63
2021/05/23 08:06:43;;;;;;;7.87;3.53;;;;;;;16.97;39.31;100662.09;5121269;28;20209;-63
2021/05/23 08:09:09;;;;;;;5.50;3.60;;;;;;;19.36;35.13;100652.25;5121308;28;20168;-63
2021/05/23 08:11:34;;;;;;;8.50;3.63;;;;;;;17.76;37.68;100657.03;5121427;28;20214;-63
2021/05/23 08:13:59;;;;;;;5.50;3.30;;;;;;;20.26;33.59;100652.25;5121169;28;20569;-63
2021/05/23 08:16:25;;;;;;;4.40;3.00;;;;;;;19.56;34.53;100649.03;5121127;28;20469;-63
2021/05/23 08:18:50;;;;;;;6.50;3.40;;;;;;;19.34;34.64;100657.59;5121537;28;20182;-64
2021/05/23 08:21:15;;;;;;;5.50;3.50;;;;;;;17.97;37.25;100663.66;5120868;28;20207;-63
2021/05/23 08:23:42;;;;;;;9.70;3.10;;;;;;;17.08;39.35;100680.34;5121078;27;20585;-63
2021/05/23 08:26:07;;;;;;;4.57;3.30;;;;;;;15.64;41.60;100689.44;5120614;28;20211;-64
2021/05/23 08:28:33;;;;;;;7.10;3.60;;;;;;;16.14;41.34;100685.34;5120980;27;20826;-64
2021/05/23 08:30:59;;;;;;;6.30;3.50;;;;;;;16.19;41.94;100690.53;5120828;28;20212;-63
2021/05/23 08:33:25;;;;;;;6.03;3.10;;;;;;;15.54;42.90;100693.09;5120718;28;20182;-64
2021/05/23 08:35:50;;;;;;;6.10;3.60;;;;;;;15.54;43.43;100693.09;5120637;28;20413;-64
2021/05/23 08:38:15;;;;;;;7.00;3.83;;;;;;;16.43;42.12;100691.91;5120918;28;20243;-64
2021/05/23 08:40:41;;;;;;;7.10;3.33;;;;;;;16.35;41.22;100696.44;5119832;28;20178;-63
2021/05/23 08:43:09;;;;;;;7.23;3.20;;;;;;;16.36;41.09;100706.06;5121348;28;20194;-64
2021/05/23 08:45:35;;;;;;;4.53;3.20;;;;;;;16.00;41.12;100697.78;5120199;28;20169;-64
2021/05/23 08:48:00;;;;;;;5.93;3.53;;;;;;;17.05;39.63;100708.47;5120383;28;20414;-64
2021/05/23 08:50:26;;;;;;;8.47;3.67;;;;;;;16.88;40.02;100711.41;5120373;28;20400;-63
2021/05/23 08:52:59;;;;;;;9.63;3.23;;;;;;;15.79;42.11;100715.56;5120604;28;20412;-63
2021/05/23 08:55:25;;;;;;;3.77;3.10;;;;;;;15.64;42.37;100720.97;5120355;28;20198;-63
2021/05/23 08:57:52;;;;;;;5.97;3.00;;;;;;;16.92;39.27;100721.88;5120186;28;20409;-64
2021/05/23 09:00:19;;;;;;;4.90;3.50;;;;;;;18.98;36.38;100710.53;5119786;28;20217;-64
2021/05/23 09:03:10;;;;;;;3.90;2.87;;;;;;;17.68;37.14;100709.94;5119992;28;20425;-64
2021/05/23 09:05:36;;;;;;;3.53;3.13;;;;;;;16.54;39.63;100720.69;5120010;28;20429;-64
2021/05/23 09:08:06;;;;;;;5.47;3.60;;;;;;;15.98;41.36;100723.25;5120370;28;20451;-64
2021/05/23 09:10:33;;;;;;;5.23;3.50;;;;;;;15.33;42.65;100729.22;5119953;28;20439;-64
2021/05/23 09:12:59;;;;;;;5.30;3.20;;;;;;;15.09;43.60;100731.19;5118972;28;20388;-64
2021/05/23 09:15:26;;;;;;;4.83;3.63;;;;;;;15.48;42.92;100730.81;5120361;28;20444;-63
2021/05/23 09:18:12;;;;;;;6.50;3.50;;;;;;;15.99;41.91;100732.84;5119937;28;20504;-64
2021/05/23 09:20:40;;;;;;;8.13;3.50;;;;;;;15.62;42.39;100738.53;5119834;28;20396;-64
2021/05/23 09:23:20;;;;;;;4.73;3.47;;;;;;;15.64;42.79;100736.75;5119614;28;20412;-65
2021/05/23 09:25:45;;;;;;;5.87;3.30;;;;;;;15.64;42.38;100736.75;5119552;28;20435;-64
2021/05/23 09:28:12;;;;;;;4.60;3.80;;;;;;;16.21;42.37;100737.84;5119571;28;20571;-64
2021/05/23 09:30:40;;;;;;;5.03;3.30;;;;;;;16.00;41.59;100742.50;5119873;27;20217;-64
2021/05/23 09:33:07;;;;;;;5.10;3.33;;;;;;;16.06;42.22;100745.06;5119766;28;20405;-64
2021/05/23 09:35:40;;;;;;;5.73;3.00;;;;;;;16.33;40.74;100742.91;5119408;28;20439;-63
2021/05/23 09:38:07;;;;;;;5.33;3.77;;;;;;;17.50;39.02;100742.81;5119349;28;20466;-64
2021/05/23 09:40:43;;;;;;;3.57;2.73;;;;;;;19.74;34.42;100732.28;5119419;28;20388;-64
2021/05/23 09:43:10;;;;;;;5.93;3.67;;;;;;;18.09;36.20;100750.44;5119253;28;20424;-64
2021/05/23 09:45:53;;;;;;;4.87;3.10;;;;;;;18.43;36.45;100739.13;5119171;28;20826;-64
2021/05/23 09:48:24;;;;;;;5.80;3.03;;;;;;;18.37;37.01;100738.41;5119385;28;20862;-66
2021/05/23 09:50:56;;;;;;;4.13;2.80;;;;;;;18.09;37.18;100739.88;5119050;28;20428;-64
2021/05/23 09:53:32;;;;;;;6.97;3.07;;;;;;;20.24;33.54;100746.72;5119123;28;20454;-65
2021/05/23 09:55:59;;;;;;;5.17;3.00;;;;;;;19.41;34.35;100744.66;5119697;28;20401;-64
2021/05/23 09:58:36;;;;;;;6.30;2.90;;;;;;;19.01;35.47;100746.56;5118961;28;20450;-64
2021/05/23 10:01:02;;;;;;;6.53;4.03;;;;;;;19.38;34.41;100750.91;5118921;28;20433;-65
2021/05/23 10:03:30;;;;;;;4.40;2.90;;;;;;;21.43;30.67;100745.50;5118975;28;20504;-64
2021/05/23 10:05:55;;;;;;;4.07;2.90;;;;;;;21.42;31.81;100749.06;5118872;28;20938;-65
2021/05/23 10:08:21;;;;;;;6.40;3.60;;;;;;;21.06;31.76;100752.97;5118919;28;20414;-65
2021/05/23 10:10:47;;;;;;;4.43;2.60;;;;;;;19.27;34.33;100755.63;5119260;28;20437;-65
2021/05/23 10:13:13;;;;;;;4.37;2.63;;;;;;;19.80;34.21;100763.88;5117176;28;20199;-65
2021/05/23 10:15:39;;;;;;;5.40;3.30;;;;;;;19.40;34.87;100754.34;5118775;27;20437;-64
2021/05/23 10:18:05;;;;;;;4.10;2.47;;;;;;;18.43;35.52;100765.53;5119201;28;20461;-63
2021/05/23 10:20:31;;;;;;;3.03;2.50;;;;;;;17.48;36.47;100779.72;5118764;27;20178;-64
2021/05/23 10:22:59;;;;;;;4.50;3.00;;;;;;;17.37;36.36;100775.53;5118589;28;20409;-64
2021/05/23 10:25:24;;;;;;;4.10;2.83;;;;;;;17.35;36.86;100778.22;5118643;28;20302;-63
2021/05/23 10:27:51;;;;;;;4.33;2.70;;;;;;;17.23;37.54;100787.19;5118650;28;20547;-66
2021/05/23 10:30:17;;;;;;;3.80;2.80;;;;;;;17.44;37.59;100785.97;5117907;28;20182;-64
2021/05/23 10:32:43;;;;;;;3.97;2.80;;;;;;;16.66;38.77;100785.44;5118408;28;20388;-65
2021/05/23 10:35:23;;;;;;;5.97;3.20;;;;;;;16.54;38.84;100793.53;5118619;28;20409;-65
2021/05/23 10:37:50;;;;;;;3.10;2.23;;;;;;;16.13;39.31;100801.94;5118445;28;20391;-64
2021/05/23 10:40:27;;;;;;;6.17;2.97;;;;;;;16.70;38.93;100799.41;5118629;28;20388;-64
2021/05/23 10:42:58;;;;;;;4.10;2.70;;;;;;;16.61;39.13;100795.16;5118449;28;20428;-65
2021/05/23 10:45:34;;;;;;;4.13;2.93;;;;;;;18.37;35.80;100786.75;5118470;28;20415;-64
2021/05/23 10:48:19;;;;;;;4.37;2.97;;;;;;;18.62;35.38;100791.50;5118533;28;20379;-65
2021/05/23 10:50:47;;;;;;;2.67;2.47;;;;;;;18.49;35.23;100793.56;5118513;28;20395;-64
2021/05/23 10:53:12;;;;;;;4.93;2.87;;;;;;;18.44;35.63;100791.03;5118486;28;20384;-64
2021/05/23 10:56:17;;;;;;;3.47;2.80;;;;;;;20.08;33.59;100784.25;5118428;28;20724;-64
2021/05/23 10:58:54;;;;;;;6.03;3.60;;;;;;;21.01;31.68;100782.28;5114484;28;20564;-63
2021/05/23 11:01:34;;;;;;;3.40;2.57;;;;;;;20.52;31.61;100782.03;5118277;28;20719;-64
2021/05/23 11:04:11;;;;;;;7.23;2.73;;;;;;;19.19;33.66;100798.09;5118299;28;20465;-66
2021/05/23 11:06:37;;;;;;;4.53;3.10;;;;;;;20.04;32.47;100793.19;5118386;28;20506;-66
2021/05/23 11:09:10;;;;;;;3.30;2.23;;;;;;;19.93;32.80;100789.97;5118189;28;20413;-67
2021/05/23 11:11:36;;;;;;;4.30;2.73;;;;;;;19.96;32.77;100788.13;5118077;28;20409;-67
2021/05/23 11:14:24;;;;;;;3.33;3.03;;;;;;;19.63;33.47;100787.25;5118504;28;20401;-66
2021/05/23 11:16:54;;;;;;;4.53;2.90;;;;;;;19.59;33.60;100809.41;5118199;28;20190;-65
2021/05/23 11:19:21;;;;;;;3.23;2.80;;;;;;;18.92;34.52;100804.94;5117700;28;20903;-64
2021/05/23 11:21:48;;;;;;;3.17;2.77;;;;;;;19.08;33.75;100806.28;5118081;28;20420;-63
2021/05/23 11:24:14;;;;;;;3.27;2.97;;;;;;;18.50;34.67;100819.06;5119814;28;20427;-65